createdAt,value
2017-11-17T00:00:05.880Z,6.7
2017-11-17T00:05:07.863Z,6.7
2017-11-17T00:10:05.617Z,6.7
2017-11-17T00:15:03.029Z,6.7
2017-11-17T00:20:15.379Z,6.8
2017-11-17T00:25:05.756Z,6.8
2017-11-17T00:35:09.997Z,6.8
2017-11-17T00:40:02.684Z,6.8
2017-11-17T00:45:27.929Z,6.9
2017-11-17T00:50:17.668Z,6.9
2017-11-17T00:55:07.960Z,6.9
2017-11-17T01:00:10.235Z,6.9
2017-11-17T01:05:25.929Z,6.9
2017-11-17T01:10:12.541Z,6.9
2017-11-17T01:20:08.197Z,6.9
2017-11-17T01:25:05.126Z,7
2017-11-17T01:30:03.315Z,7
2017-11-17T01:35:05.328Z,7
2017-11-17T01:40:15.765Z,7
2017-11-17T01:45:10.584Z,6.9
2017-11-17T01:50:02.681Z,6.9
2017-11-17T01:55:30.916Z,6.8
2017-11-17T02:00:25.594Z,6.8
2017-11-17T02:05:05.878Z,6.8
2017-11-17T02:10:25.221Z,6.8
2017-11-17T02:20:23.318Z,6.8
2017-11-17T02:25:15.245Z,6.8
2017-11-17T02:30:05.890Z,6.9
2017-11-17T02:35:02.779Z,6.9
2017-11-17T02:45:10.543Z,6.9
2017-11-17T02:50:07.789Z,6.9
2017-11-17T02:55:20.811Z,6.9
2017-11-17T03:00:07.960Z,6.9
2017-11-17T03:05:27.705Z,7
2017-11-17T03:10:02.660Z,7
2017-11-17T03:15:22.829Z,6.9
2017-11-17T03:20:25.953Z,6.9
2017-11-17T03:25:02.748Z,6.9
2017-11-17T03:30:07.561Z,7
2017-11-17T03:35:02.978Z,7
2017-11-17T03:40:10.917Z,7.1
2017-11-17T03:45:05.731Z,7.1
2017-11-17T03:50:25.730Z,7.1
2017-11-17T03:55:02.427Z,7.1
2017-11-17T04:00:10.728Z,7.1
2017-11-17T04:10:05.440Z,7.2
2017-11-17T04:15:05.318Z,7.2
2017-11-17T04:20:07.466Z,7.3
2017-11-17T04:25:08.005Z,7.2
2017-11-17T04:30:20.303Z,7.3
2017-11-17T04:35:28.316Z,7.3
2017-11-17T04:40:05.856Z,7.4
2017-11-17T04:45:28.506Z,7.4
2017-11-17T04:50:07.994Z,7.4
2017-11-17T04:55:07.446Z,7.4
2017-11-17T05:00:25.849Z,7.4
2017-11-17T05:10:10.405Z,7.4
2017-11-17T05:15:07.732Z,7.4
2017-11-17T05:20:20.110Z,7.5
2017-11-17T05:25:05.454Z,7.5
2017-11-17T05:30:02.726Z,7.5
2017-11-17T05:35:08.114Z,7.4
2017-11-17T05:40:03.275Z,7.4
2017-11-17T05:45:08.321Z,7.3
2017-11-17T05:50:07.989Z,7.2
2017-11-17T05:55:05.873Z,7.2
2017-11-17T06:00:13.227Z,7.2
2017-11-17T06:10:02.658Z,7.3
2017-11-17T06:15:02.575Z,7.3
2017-11-17T06:20:03.229Z,7.3
2017-11-17T06:25:07.804Z,7.3
2017-11-17T06:30:13.492Z,7.3
2017-11-17T06:35:10.485Z,7.3
2017-11-17T06:40:03.167Z,7.3
2017-11-17T06:45:28.289Z,7.2
2017-11-17T06:50:07.730Z,7.1
2017-11-17T06:55:10.666Z,7.1
2017-11-17T07:00:07.832Z,7
2017-11-17T07:05:05.727Z,7
2017-11-17T07:10:08.478Z,6.9
2017-11-17T07:15:13.395Z,6.9
2017-11-17T07:20:02.851Z,6.9
2017-11-17T07:25:15.969Z,6.8
2017-11-17T07:30:15.646Z,6.8
2017-11-17T07:35:02.427Z,6.8
2017-11-17T07:40:20.302Z,6.8
2017-11-17T07:45:12.623Z,6.9
2017-11-17T07:55:05.142Z,7
2017-11-17T08:00:05.784Z,7.1
2017-11-17T08:05:07.755Z,7.1
2017-11-17T08:10:05.398Z,7.2
2017-11-17T08:15:07.825Z,7.2
2017-11-17T08:25:05.386Z,7.2
2017-11-17T08:30:30.271Z,7.2
2017-11-17T08:35:20.675Z,7.2
2017-11-17T08:40:08.236Z,7.1
2017-11-17T08:45:05.636Z,7.1
2017-11-17T08:50:10.298Z,7.1
2017-11-17T08:55:15.851Z,7.2
2017-11-17T09:00:28.131Z,7.3
2017-11-17T09:05:31.150Z,7.3
2017-11-17T09:10:10.134Z,7.3
2017-11-17T09:15:09.979Z,7.4
2017-11-17T09:20:03.137Z,7.4
2017-11-17T09:30:05.693Z,7.5
2017-11-17T09:35:22.821Z,7.5
2017-11-17T09:40:12.916Z,7.5
2017-11-17T09:45:10.350Z,7.6
2017-11-17T09:50:07.534Z,7.7
2017-11-17T09:55:25.620Z,7.7
2017-11-17T10:05:07.991Z,7.8
2017-11-17T10:10:03.182Z,7.8
2017-11-17T10:15:25.877Z,7.9
2017-11-17T10:20:23.017Z,8
2017-11-17T10:25:38.698Z,8.1
2017-11-17T10:30:28.205Z,8.2
2017-11-17T10:35:05.906Z,8.3
2017-11-17T10:40:07.610Z,8.4
2017-11-17T10:45:20.302Z,8.5
2017-11-17T10:50:13.322Z,8.6
2017-11-17T10:55:05.232Z,8.6
2017-11-17T11:00:12.540Z,8.7
2017-11-17T11:05:28.214Z,8.9
2017-11-17T11:10:08.316Z,8.9
2017-11-17T11:20:05.459Z,8.8
2017-11-17T11:25:31.146Z,8.7
2017-11-17T11:30:25.799Z,8.6
2017-11-17T11:40:10.315Z,8.4
2017-11-17T11:45:15.405Z,8.6
2017-11-17T11:50:30.252Z,8.7
2017-11-17T11:55:13.068Z,8.9
2017-11-17T12:00:10.268Z,9.1
2017-11-17T12:05:10.858Z,9.3
2017-11-17T12:10:12.618Z,9.5
2017-11-17T12:15:07.615Z,9.6
2017-11-17T12:20:33.728Z,9.4
2017-11-17T12:25:07.933Z,9.3
2017-11-17T12:30:02.686Z,9.3
2017-11-17T12:35:05.756Z,9.4
2017-11-17T12:40:05.093Z,9.5
2017-11-17T12:45:10.121Z,9.6
2017-11-17T12:50:28.482Z,9.7
2017-11-17T12:55:17.953Z,9.9
2017-11-17T13:00:10.047Z,10.2
2017-11-17T13:05:28.275Z,10.2
2017-11-17T13:10:08.372Z,10
2017-11-17T13:15:17.573Z,10
2017-11-17T13:20:05.632Z,9.9
2017-11-17T13:25:25.629Z,9.8
2017-11-17T13:30:25.256Z,9.7
2017-11-17T13:35:08.200Z,9.7
2017-11-17T13:40:02.382Z,9.7
2017-11-17T13:45:02.489Z,9.6
2017-11-17T13:50:13.277Z,9.6
2017-11-17T13:55:28.130Z,9.5
2017-11-17T14:00:22.901Z,9.4
2017-11-17T14:05:23.383Z,9.3
2017-11-17T14:10:02.475Z,9.3
2017-11-17T14:15:22.779Z,9.2
2017-11-17T14:20:08.298Z,9.2
2017-11-17T14:25:02.764Z,9.2
2017-11-17T14:30:22.768Z,9.2
2017-11-17T14:35:03.099Z,9.3
2017-11-17T14:45:05.035Z,9
2017-11-17T14:50:10.804Z,8.8
2017-11-17T14:55:05.366Z,8.6
2017-11-17T15:00:05.185Z,8.5
2017-11-17T15:05:20.870Z,8.3
2017-11-17T15:10:02.411Z,8.3
2017-11-17T15:15:25.302Z,7.9
2017-11-17T15:20:05.869Z,7.8
2017-11-17T15:25:15.543Z,7.6
2017-11-17T15:30:12.801Z,7.4
2017-11-17T15:35:20.985Z,7.3
2017-11-17T15:40:10.359Z,7
2017-11-17T15:45:25.334Z,6.9
2017-11-17T15:55:02.823Z,6.7
2017-11-17T16:00:07.576Z,6.4
2017-11-17T16:05:10.601Z,6.3
2017-11-17T16:10:28.554Z,6.1
2017-11-17T16:15:03.222Z,6.1
2017-11-17T16:20:05.454Z,5.9
2017-11-17T16:25:04.954Z,5.8
2017-11-17T16:30:30.894Z,5.7
2017-11-17T16:35:02.567Z,5.7
2017-11-17T16:45:15.326Z,5.5
2017-11-17T16:50:08.359Z,5.4
2017-11-17T17:00:05.918Z,5.2
2017-11-17T17:05:10.353Z,5.1
2017-11-17T17:10:05.439Z,5
2017-11-17T17:15:38.207Z,4.9
2017-11-17T17:25:05.361Z,4.8
2017-11-17T17:35:10.366Z,4
2017-11-17T17:45:28.044Z,4.5
2017-11-17T17:50:15.994Z,4.4
2017-11-17T17:55:15.326Z,4.3
2017-11-17T18:00:03.213Z,4.3
2017-11-17T18:05:27.901Z,4.2
2017-11-17T18:10:12.785Z,4.1
2017-11-17T18:20:05.633Z,4.1
2017-11-17T18:25:20.074Z,4
2017-11-17T18:30:15.804Z,4
2017-11-17T18:35:03.326Z,4
2017-11-17T18:45:26.039Z,3.8
2017-11-17T18:50:08.058Z,3.7
2017-11-17T18:55:05.681Z,3.6
2017-11-17T19:00:10.401Z,3.5
2017-11-17T19:05:08.030Z,3.4
2017-11-17T19:10:05.643Z,3.3
2017-11-17T19:15:10.422Z,3.3
2017-11-17T19:20:18.478Z,3.3
2017-11-17T19:25:10.181Z,3.2
2017-11-17T19:30:08.203Z,3.2
2017-11-17T19:35:30.287Z,3.1
2017-11-17T19:45:03.260Z,3
2017-11-17T19:50:17.955Z,2.9
2017-11-17T19:55:08.105Z,2.9
2017-11-17T20:00:10.249Z,3
2017-11-17T20:05:33.233Z,2.9
2017-11-17T20:10:07.914Z,2.9
2017-11-17T20:15:02.663Z,2.9
2017-11-17T20:20:03.204Z,2.8
2017-11-17T20:25:12.623Z,2.7
2017-11-17T20:30:05.591Z,2.6
2017-11-17T20:35:05.883Z,2.5
2017-11-17T20:40:18.610Z,2.5
2017-11-17T20:50:05.246Z,2.4
2017-11-17T20:55:15.646Z,2.2
2017-11-17T21:00:27.917Z,2.2
2017-11-17T21:05:07.818Z,2.2
2017-11-17T21:10:17.973Z,2.1
2017-11-17T21:15:02.452Z,2.2
2017-11-17T21:20:05.527Z,2.1
2017-11-17T21:25:08.264Z,2
2017-11-17T21:30:12.882Z,1.9
2017-11-17T21:35:20.759Z,1.9
2017-11-17T21:40:05.626Z,1.9
2017-11-17T21:45:20.401Z,1.9
2017-11-17T21:55:38.742Z,2
2017-11-17T22:00:02.802Z,2
2017-11-17T22:05:08.097Z,2.2
2017-11-17T22:10:25.894Z,2.3
2017-11-17T22:15:05.328Z,2.3
2017-11-17T22:20:03.372Z,2.3
2017-11-17T22:25:02.462Z,2.3
2017-11-17T22:30:15.666Z,2.2
2017-11-17T22:35:15.775Z,2.2
2017-11-17T22:40:05.739Z,2.2
2017-11-17T22:45:17.997Z,2.2
2017-11-17T22:50:10.886Z,2.1
2017-11-17T22:55:07.585Z,2.2
2017-11-17T23:10:05.669Z,2
2017-11-17T23:15:12.874Z,2
2017-11-17T23:20:28.548Z,1.9
2017-11-17T23:25:10.014Z,1.9
2017-11-17T23:30:07.947Z,1.9
2017-11-17T23:35:05.551Z,2
2017-11-17T23:40:20.720Z,1.6
2017-11-17T23:45:10.166Z,1.9
2017-11-17T23:55:15.770Z,1.6
